Home > Products > Valid Products > TAF

000
FTUS45 KGGW 051011 AAB
TAFGDV
TAF AMD
KGDV 051011Z 0510/0606 04013KT P6SM SCT005
      TEMPO 0510/0512 BKN005
     FM051200 08014KT P6SM BKN025
     FM060000 32015KT P6SM BKN050
      AMD LTD TO CLD VIS AND WIND=



000
FTUS45 KGGW 051011 AAB
TAFGDV
TAF AMD
KGDV 051011Z 0510/0606 04013KT P6SM SCT005
      TEMPO 0510/0512 BKN005
     FM051200 08014KT P6SM BKN025
     FM060000 32015KT P6SM BKN050
      AMD LTD TO CLD VIS AND WIND=



000
FTUS45 KGGW 050803 AAA
TAFGDV
TAF AMD
KGDV 050803Z 0508/0606 04013KT P6SM OVC005
     FM051200 08014KT P6SM BKN025
     FM060000 32015KT P6SM BKN050
      AMD LTD TO CLD VIS AND WIND=



000
FTUS45 KGGW 050803 AAA
TAFGDV
TAF AMD
KGDV 050803Z 0508/0606 04013KT P6SM OVC005
     FM051200 08014KT P6SM BKN025
     FM060000 32015KT P6SM BKN050
      AMD LTD TO CLD VIS AND WIND=



000
FTUS45 KGGW 050803 AAA
TAFGDV
TAF AMD
KGDV 050803Z 0508/0606 04013KT P6SM OVC005
     FM051200 08014KT P6SM BKN025
     FM060000 32015KT P6SM BKN050
      AMD LTD TO CLD VIS AND WIND=



000
FTUS45 KGGW 050708 AAB
TAFGGW
TAF AMD
KGGW 050708Z 0507/0606 03016KT P6SM VCSH OVC030
     FM050900 04017G24KT P6SM -SHRA OVC040
     FM051200 07014KT P6SM SHRA BKN030
     FM051800 07013KT P6SM BKN020
     FM060000 05008KT 6SM -SHRA BKN040=



000
FTUS45 KGGW 050708 AAB
TAFGGW
TAF AMD
KGGW 050708Z 0507/0606 03016KT P6SM VCSH OVC030
     FM050900 04017G24KT P6SM -SHRA OVC040
     FM051200 07014KT P6SM SHRA BKN030
     FM051800 07013KT P6SM BKN020
     FM060000 05008KT 6SM -SHRA BKN040=



000
FTUS45 KGGW 050707 AAA
TAFSDY
TAF AMD
KSDY 050707Z 0507/0606 VRB05KT P6SM -SHRA OVC012
      TEMPO 0507/0509 5SM TSRA OVC009CB
     FM051800 08015KT P6SM -SHRA BKN035
     FM060300 05009KT P6SM VCSH BKN060
      AMD LTD TO CLD VIS AND WIND=



000
FTUS45 KGGW 050707 AAA
TAFSDY
TAF AMD
KSDY 050707Z 0507/0606 VRB05KT P6SM -SHRA OVC012
      TEMPO 0507/0509 5SM TSRA OVC009CB
     FM051800 08015KT P6SM -SHRA BKN035
     FM060300 05009KT P6SM VCSH BKN060
      AMD LTD TO CLD VIS AND WIND=



000
FTUS45 KGGW 050702 AAA
TAFOLF
TAF AMD
KOLF 050702Z 0507/0606 02015KT P6SM -SHRA OVC025
     FM051200 06016G23KT P6SM SHRA OVC025
     FM051800 07014KT P6SM BKN015
     FM060000 05009KT P6SM -SHRA BKN045
     FM060300 02010KT P6SM -SHRA BKN020=



000
FTUS45 KGGW 050702 AAA
TAFOLF
TAF AMD
KOLF 050702Z 0507/0606 02015KT P6SM -SHRA OVC025
     FM051200 06016G23KT P6SM SHRA OVC025
     FM051800 07014KT P6SM BKN015
     FM060000 05009KT P6SM -SHRA BKN045
     FM060300 02010KT P6SM -SHRA BKN020=



000
FTUS45 KGGW 050702 AAA
TAFOLF
TAF AMD
KOLF 050702Z 0507/0606 02015KT P6SM -SHRA OVC025
     FM051200 06016G23KT P6SM SHRA OVC025
     FM051800 07014KT P6SM BKN015
     FM060000 05009KT P6SM -SHRA BKN045
     FM060300 02010KT P6SM -SHRA BKN020=



000
FTUS45 KGGW 050702 AAA
TAFOLF
TAF AMD
KOLF 050702Z 0507/0606 02015KT P6SM -SHRA OVC025
     FM051200 06016G23KT P6SM SHRA OVC025
     FM051800 07014KT P6SM BKN015
     FM060000 05009KT P6SM -SHRA BKN045
     FM060300 02010KT P6SM -SHRA BKN020=



000
FTUS45 KGGW 050529
TAFGDV
TAF
KGDV 050529Z 0506/0606 05013KT P6SM VCTS OVC050CB
     FM050900 09016KT P6SM -SHRA OVC060
     FM051200 08014KT P6SM BKN025
      AMD LTD TO CLD VIS AND WIND=



000
FTUS45 KGGW 050529
TAFGGW
TAF
KGGW 050529Z 0506/0606 03021G32KT P6SM VCSH OVC040
     FM050900 04017G24KT P6SM -SHRA OVC040
     FM051200 07014KT P6SM SHRA BKN030
     FM051800 07013KT P6SM BKN020
     FM060000 05008KT 6SM -SHRA BKN040=



000
FTUS45 KGGW 050529
TAFSDY
TAF
KSDY 050529Z 0506/0606 01010KT P6SM VCSH BKN014
     FM051800 08015KT P6SM -SHRA BKN035
     FM060300 05009KT P6SM VCSH BKN060
      AMD LTD TO CLD VIS AND WIND=



000
FTUS45 KGGW 050529
TAFOLF
TAF
KOLF 050529Z 0506/0606 05016G24KT P6SM VCSH OVC035
     FM051200 06016G23KT P6SM SHRA OVC025
     FM051800 07014KT P6SM BKN015
     FM060000 05009KT P6SM -SHRA BKN045
     FM060300 02010KT P6SM -SHRA BKN020=



000
FTUS45 KGGW 050529
TAFGDV
TAF
KGDV 050529Z 0506/0606 05013KT P6SM VCTS OVC050CB
     FM050900 09016KT P6SM -SHRA OVC060
     FM051200 08014KT P6SM BKN025
      AMD LTD TO CLD VIS AND WIND=



000
FTUS45 KGGW 050529
TAFOLF
TAF
KOLF 050529Z 0506/0606 05016G24KT P6SM VCSH OVC035
     FM051200 06016G23KT P6SM SHRA OVC025
     FM051800 07014KT P6SM BKN015
     FM060000 05009KT P6SM -SHRA BKN045
     FM060300 02010KT P6SM -SHRA BKN020=



000
FTUS45 KGGW 050437 AAB
TAFGGW
TAF AMD
KGGW 050437Z 0505/0524 06020G30KT P6SM -SHRA BKN035
     FM051200 07012KT 6SM -SHRA BKN015
     FM051800 07010KT P6SM VCSH BKN015=



000
FTUS45 KGGW 050437 AAB
TAFGGW
TAF AMD
KGGW 050437Z 0505/0524 06020G30KT P6SM -SHRA BKN035
     FM051200 07012KT 6SM -SHRA BKN015
     FM051800 07010KT P6SM VCSH BKN015=



000
FTUS45 KGGW 050437 AAA
TAFOLF
TAF AMD
KOLF 050437Z 0505/0524 03013G23KT P6SM -SHRA BKN035
     FM051200 06013KT 6SM SHRA OVC025
     FM051800 07011KT P6SM VCSH BKN015=



000
FTUS45 KGGW 050437 AAA
TAFOLF
TAF AMD
KOLF 050437Z 0505/0524 03013G23KT P6SM -SHRA BKN035
     FM051200 06013KT 6SM SHRA OVC025
     FM051800 07011KT P6SM VCSH BKN015=



000
FTUS45 KGGW 050342 AAA
TAFSDY
TAF AMD
KSDY 050342Z 0504/0524 03011KT 6SM -SHRA OVC015
     FM051800 08011KT 6SM -SHRA BKN010
      AMD LTD TO CLD VIS AND WIND=



000
FTUS45 KGGW 042320
TAFGDV
TAF
KGDV 042320Z 0500/0524 05012KT P6SM VCSH BKN040
     FM050600 04013KT P6SM VCTS BKN025CB
     FM051200 06013KT P6SM BKN015
     FM052100 09011KT P6SM BKN030
      AMD LTD TO CLD VIS AND WIND=



000
FTUS45 KGGW 042320
TAFOLF
TAF
KOLF 042320Z 0500/0524 05014KT P6SM VCSH BKN050
     FM050600 06013KT 6SM -SHRA BKN035
     FM051200 06013KT 6SM SHRA OVC025
     FM051800 07011KT P6SM VCSH BKN015=



000
FTUS45 KGGW 042320
TAFGDV
TAF
KGDV 042320Z 0500/0524 05012KT P6SM VCSH BKN040
     FM050600 04013KT P6SM VCTS BKN025CB
     FM051200 06013KT P6SM BKN015
     FM052100 09011KT P6SM BKN030
      AMD LTD TO CLD VIS AND WIND=



000
FTUS45 KGGW 042320
TAFOLF
TAF
KOLF 042320Z 0500/0524 05014KT P6SM VCSH BKN050
     FM050600 06013KT 6SM -SHRA BKN035
     FM051200 06013KT 6SM SHRA OVC025
     FM051800 07011KT P6SM VCSH BKN015=



000
FTUS45 KGGW 042320
TAFGGW
TAF
KGGW 042320Z 0500/0524 06011KT P6SM VCSH BKN060
     FM050600 06015KT 6SM -SHRA BKN040
     FM051200 07012KT 6SM -SHRA BKN015
     FM051800 07010KT P6SM VCSH BKN015=



000
FTUS45 KGGW 042320
TAFGDV
TAF
KGDV 042320Z 0500/0524 05012KT P6SM VCSH BKN040
     FM050600 04013KT P6SM VCTS BKN025CB
     FM051200 06013KT P6SM BKN015
     FM052100 09011KT P6SM BKN030
      AMD LTD TO CLD VIS AND WIND=



000
FTUS45 KGGW 042320
TAFOLF
TAF
KOLF 042320Z 0500/0524 05014KT P6SM VCSH BKN050
     FM050600 06013KT 6SM -SHRA BKN035
     FM051200 06013KT 6SM SHRA OVC025
     FM051800 07011KT P6SM VCSH BKN015=



000
FTUS45 KGGW 042320
TAFSDY
TAF
KSDY 042320Z 0500/0524 02011KT P6SM BKN040
     FM050600 04011KT P6SM VCTS BKN025CB
     FM051200 05012KT 6SM -SHRA OVC015
     FM051800 08011KT 6SM -SHRA BKN010
      AMD LTD TO CLD VIS AND WIND=



000
FTUS45 KGGW 042320
TAFGDV
TAF
KGDV 042320Z 0500/0524 05012KT P6SM VCSH BKN040
     FM050600 04013KT P6SM VCTS BKN025CB
     FM051200 06013KT P6SM BKN015
     FM052100 09011KT P6SM BKN030
      AMD LTD TO CLD VIS AND WIND=



000
FTUS45 KGGW 042320
TAFSDY
TAF
KSDY 042320Z 0500/0524 02011KT P6SM BKN040
     FM050600 04011KT P6SM VCTS BKN025CB
     FM051200 05012KT 6SM -SHRA OVC015
     FM051800 08011KT 6SM -SHRA BKN010
      AMD LTD TO CLD VIS AND WIND=



000
FTUS45 KGGW 042320
TAFGGW
TAF
KGGW 042320Z 0500/0524 06011KT P6SM VCSH BKN060
     FM050600 06015KT 6SM -SHRA BKN040
     FM051200 07012KT 6SM -SHRA BKN015
     FM051800 07010KT P6SM VCSH BKN015=



000
FTUS45 KGGW 042320
TAFOLF
TAF
KOLF 042320Z 0500/0524 05014KT P6SM VCSH BKN050
     FM050600 06013KT 6SM -SHRA BKN035
     FM051200 06013KT 6SM SHRA OVC025
     FM051800 07011KT P6SM VCSH BKN015=



000
FTUS45 KGGW 041859 AAA
TAFGDV
TAF AMD
KGDV 041859Z 0419/0518 04014KT P6SM BKN020 OVC030
     FM050000 02009KT P6SM SCT025 BKN050
     FM050600 01013KT P6SM VCSH OVC040 PROB30 0508/0512 P6SM -TSRA
      OVC030CB
     FM051400 04014KT P6SM OVC008
      AMD LTD TO CLD VIS AND WIND=



000
FTUS45 KGGW 041859 AAA
TAFGDV
TAF AMD
KGDV 041859Z 0419/0518 04014KT P6SM BKN020 OVC030
     FM050000 02009KT P6SM SCT025 BKN050
     FM050600 01013KT P6SM VCSH OVC040 PROB30 0508/0512 P6SM -TSRA
      OVC030CB
     FM051400 04014KT P6SM OVC008
      AMD LTD TO CLD VIS AND WIND=



000
FTUS45 KGGW 041859 AAA
TAFSDY
TAF AMD
KSDY 041859Z 0419/0518 02014KT P6SM BKN025
     FM050200 01014KT P6SM VCSH OVC050
     FM050800 36013KT P6SM -SHRA OVC040 PROB30 0508/0512 P6SM -TSRA
      OVC030CB
     FM051200 04009KT P6SM -RA OVC005
      AMD LTD TO CLD VIS AND WIND=



000
FTUS45 KGGW 041734
TAFSDY
TAF
KSDY 041734Z 0418/0518 36012G22KT P6SM BKN015
     FM050200 01014KT P6SM VCSH OVC050
     FM050800 36013KT P6SM -SHRA OVC040 PROB30 0508/0512 P6SM -TSRA
      OVC030CB
     FM051200 04009KT P6SM -RA OVC005
      AMD LTD TO CLD VIS AND WIND=



000
FTUS45 KGGW 041734
TAFGDV
TAF
KGDV 041734Z 0418/0518 01012KT P6SM BKN020 OVC030
     FM050000 02009KT P6SM SCT025 BKN050
     FM050600 01013KT P6SM VCSH OVC040 PROB30 0508/0512 P6SM -TSRA
      OVC030CB
     FM051400 04014KT P6SM OVC008
      AMD LTD TO CLD VIS AND WIND=



000
FTUS45 KGGW 041734
TAFOLF
TAF
KOLF 041734Z 0418/0518 03014G24KT P6SM SCT025 BKN040
     FM050500 03013KT P6SM -SHRA OVC040 PROB30 0507/0511 -TSRA
      OVC030CB
     FM051200 06011KT P6SM -SHRA OVC007=



000
FTUS45 KGGW 041734
TAFGGW
TAF
KGGW 041734Z 0418/0518 04015G25KT P6SM SCT025 BKN050
     FM050400 05011KT P6SM -SHRA OVC040 PROB30 0507/0510 P6SM -TSRA
      BKN030CB
     FM051200 06011KT P6SM -SHRA OVC007=



000
FTUS45 KGGW 041734
TAFOLF
TAF
KOLF 041734Z 0418/0518 03014G24KT P6SM SCT025 BKN040
     FM050500 03013KT P6SM -SHRA OVC040 PROB30 0507/0511 -TSRA
      OVC030CB
     FM051200 06011KT P6SM -SHRA OVC007=



000
FTUS45 KGGW 041734
TAFGDV
TAF
KGDV 041734Z 0418/0518 01012KT P6SM BKN020 OVC030
     FM050000 02009KT P6SM SCT025 BKN050
     FM050600 01013KT P6SM VCSH OVC040 PROB30 0508/0512 P6SM -TSRA
      OVC030CB
     FM051400 04014KT P6SM OVC008
      AMD LTD TO CLD VIS AND WIND=



000
FTUS45 KGGW 041734
TAFGGW
TAF
KGGW 041734Z 0418/0518 04015G25KT P6SM SCT025 BKN050
     FM050400 05011KT P6SM -SHRA OVC040 PROB30 0507/0510 P6SM -TSRA
      BKN030CB
     FM051200 06011KT P6SM -SHRA OVC007=



000
FTUS45 KGGW 041734
TAFOLF
TAF
KOLF 041734Z 0418/0518 03014G24KT P6SM SCT025 BKN040
     FM050500 03013KT P6SM -SHRA OVC040 PROB30 0507/0511 -TSRA
      OVC030CB
     FM051200 06011KT P6SM -SHRA OVC007=



000
FTUS45 KGGW 041734
TAFGDV
TAF
KGDV 041734Z 0418/0518 01012KT P6SM BKN020 OVC030
     FM050000 02009KT P6SM SCT025 BKN050
     FM050600 01013KT P6SM VCSH OVC040 PROB30 0508/0512 P6SM -TSRA
      OVC030CB
     FM051400 04014KT P6SM OVC008
      AMD LTD TO CLD VIS AND WIND=



000
FTUS45 KGGW 041734
TAFOLF
TAF
KOLF 041734Z 0418/0518 03014G24KT P6SM SCT025 BKN040
     FM050500 03013KT P6SM -SHRA OVC040 PROB30 0507/0511 -TSRA
      OVC030CB
     FM051200 06011KT P6SM -SHRA OVC007=



000
FTUS45 KGGW 041734
TAFGDV
TAF
KGDV 041734Z 0418/0518 01012KT P6SM BKN020 OVC030
     FM050000 02009KT P6SM SCT025 BKN050
     FM050600 01013KT P6SM VCSH OVC040 PROB30 0508/0512 P6SM -TSRA
      OVC030CB
     FM051400 04014KT P6SM OVC008
      AMD LTD TO CLD VIS AND WIND=



000
FTUS45 KGGW 041734
TAFSDY
TAF
KSDY 041734Z 0418/0518 36012G22KT P6SM BKN015
     FM050200 01014KT P6SM VCSH OVC050
     FM050800 36013KT P6SM -SHRA OVC040 PROB30 0508/0512 P6SM -TSRA
      OVC030CB
     FM051200 04009KT P6SM -RA OVC005
      AMD LTD TO CLD VIS AND WIND=



000
FTUS45 KGGW 041508 AAB
TAFGDV
TAF AMD
KGDV 041508Z 0415/0512 34015KT P6SM VCSH SCT025 OVC080
      TEMPO 0415/0417 BKN020
     FM041800 04011KT P6SM BKN100
     FM050000 02009KT P6SM BKN070
     FM050600 01013KT P6SM VCSH OVC040
      AMD LTD TO CLD VIS AND WIND=



000
FTUS45 KGGW 041508 AAB
TAFSDY
TAF AMD
KSDY 041508Z 0415/0512 31011KT P6SM VCSH BKN015
     FM041600 04013KT P6SM SCT025 BKN100
     FM050200 01014KT P6SM VCSH OVC080
     FM050600 36013KT P6SM -RA OVC040
      AMD LTD TO CLD VIS AND WIND=



000
FTUS45 KGGW 041508 AAB
TAFGDV
TAF AMD
KGDV 041508Z 0415/0512 34015KT P6SM VCSH SCT025 OVC080
      TEMPO 0415/0417 BKN020
     FM041800 04011KT P6SM BKN100
     FM050000 02009KT P6SM BKN070
     FM050600 01013KT P6SM VCSH OVC040
      AMD LTD TO CLD VIS AND WIND=



000
FTUS45 KGGW 041358 AAB
TAFGGW
TAF AMD
KGGW 041358Z 0414/0512 02015G25KT P6SM BKN110
     FM050300 05011KT P6SM -RA OVC040=



000
FTUS45 KGGW 041358 AAB
TAFGGW
TAF AMD
KGGW 041358Z 0414/0512 02015G25KT P6SM BKN110
     FM050300 05011KT P6SM -RA OVC040=



000
FTUS45 KGGW 041222 AAA
TAFSDY
TAF AMD
KSDY 041222Z 0412/0512 36011KT P6SM VCSH SCT015 OVC080
      TEMPO 0412/0415 BKN016
     FM041600 04013KT P6SM BKN100
     FM050200 01014KT P6SM VCSH OVC080
     FM050600 36013KT P6SM -RA OVC040
      AMD LTD TO CLD VIS AND WIND=



000
FTUS45 KGGW 041222 AAA
TAFSDY
TAF AMD
KSDY 041222Z 0412/0512 36011KT P6SM VCSH SCT015 OVC080
      TEMPO 0412/0415 BKN016
     FM041600 04013KT P6SM BKN100
     FM050200 01014KT P6SM VCSH OVC080
     FM050600 36013KT P6SM -RA OVC040
      AMD LTD TO CLD VIS AND WIND=



000
FTUS45 KGGW 041222 AAA
TAFGDV
TAF AMD
KGDV 041222Z 0412/0512 34011KT P6SM VCSH SCT025 OVC080
      TEMPO 0414/0415 BKN025
     FM041800 04011KT P6SM BKN100
     FM050000 02009KT P6SM BKN070
     FM050600 01013KT P6SM VCSH OVC040
      AMD LTD TO CLD VIS AND WIND=



000
FTUS45 KGGW 041222 AAA
TAFGDV
TAF AMD
KGDV 041222Z 0412/0512 34011KT P6SM VCSH SCT025 OVC080
      TEMPO 0414/0415 BKN025
     FM041800 04011KT P6SM BKN100
     FM050000 02009KT P6SM BKN070
     FM050600 01013KT P6SM VCSH OVC040
      AMD LTD TO CLD VIS AND WIND=



000
FTUS45 KGGW 041222 AAA
TAFGDV
TAF AMD
KGDV 041222Z 0412/0512 34011KT P6SM VCSH SCT025 OVC080
      TEMPO 0414/0415 BKN025
     FM041800 04011KT P6SM BKN100
     FM050000 02009KT P6SM BKN070
     FM050600 01013KT P6SM VCSH OVC040
      AMD LTD TO CLD VIS AND WIND=



000
FTUS45 KGGW 041222 AAA
TAFGDV
TAF AMD
KGDV 041222Z 0412/0512 34011KT P6SM VCSH SCT025 OVC080
      TEMPO 0414/0415 BKN025
     FM041800 04011KT P6SM BKN100
     FM050000 02009KT P6SM BKN070
     FM050600 01013KT P6SM VCSH OVC040
      AMD LTD TO CLD VIS AND WIND=



000
FTUS45 KGGW 041211 AAA
TAFOLF
TAF AMD
KOLF 041211Z 0412/0512 VRB05KT P6SM SCT024 BKN100
      TEMPO 0412/0415 BKN024
     FM041500 04014KT P6SM BKN080
     FM050500 03013KT P6SM -RA OVC040=



000
FTUS45 KGGW 041211 AAA
TAFOLF
TAF AMD
KOLF 041211Z 0412/0512 VRB05KT P6SM SCT024 BKN100
      TEMPO 0412/0415 BKN024
     FM041500 04014KT P6SM BKN080
     FM050500 03013KT P6SM -RA OVC040=



000
FTUS45 KGGW 041211 AAA
TAFOLF
TAF AMD
KOLF 041211Z 0412/0512 VRB05KT P6SM SCT024 BKN100
      TEMPO 0412/0415 BKN024
     FM041500 04014KT P6SM BKN080
     FM050500 03013KT P6SM -RA OVC040=



000
FTUS45 KGGW 041211 AAA
TAFOLF
TAF AMD
KOLF 041211Z 0412/0512 VRB05KT P6SM SCT024 BKN100
      TEMPO 0412/0415 BKN024
     FM041500 04014KT P6SM BKN080
     FM050500 03013KT P6SM -RA OVC040=



000
FTUS45 KGGW 041123
TAFGDV
TAF
KGDV 041123Z 0412/0512 36011KT P6SM VCSH OVC080
     FM041800 04011KT P6SM BKN100
     FM050000 02009KT P6SM BKN070
     FM050600 01013KT P6SM VCSH OVC040
      AMD LTD TO CLD VIS AND WIND=



000
FTUS45 KGGW 041123
TAFGGW
TAF
KGGW 041123Z 0412/0512 29010KT P6SM VCTS OVC070CB
      TEMPO 0412/0413 VRB10G30KT
     FM041300 34010KT P6SM BKN080
     FM041700 03015KT P6SM BKN100
     FM050300 05011KT P6SM -RA OVC040=



000
FTUS45 KGGW 041123
TAFOLF
TAF
KOLF 041123Z 0412/0512 01011KT P6SM BKN100
     FM041500 04014KT P6SM BKN080
     FM050500 03013KT P6SM -RA OVC040=



000
FTUS45 KGGW 041123
TAFSDY
TAF
KSDY 041123Z 0412/0512 36011KT P6SM VCSH OVC080
     FM041600 04013KT P6SM BKN100
     FM050200 01014KT P6SM VCSH OVC080
     FM050600 36013KT P6SM -RA OVC040
      AMD LTD TO CLD VIS AND WIND=



000
FTUS45 KGGW 041123
TAFSDY
TAF
KSDY 041123Z 0412/0512 36011KT P6SM VCSH OVC080
     FM041600 04013KT P6SM BKN100
     FM050200 01014KT P6SM VCSH OVC080
     FM050600 36013KT P6SM -RA OVC040
      AMD LTD TO CLD VIS AND WIND=



000
FTUS45 KGGW 041123
TAFOLF
TAF
KOLF 041123Z 0412/0512 01011KT P6SM BKN100
     FM041500 04014KT P6SM BKN080
     FM050500 03013KT P6SM -RA OVC040=



000
FTUS45 KGGW 041123
TAFGGW
TAF
KGGW 041123Z 0412/0512 29010KT P6SM VCTS OVC070CB
      TEMPO 0412/0413 VRB10G30KT
     FM041300 34010KT P6SM BKN080
     FM041700 03015KT P6SM BKN100
     FM050300 05011KT P6SM -RA OVC040=



000
FTUS45 KGGW 041123
TAFGDV
TAF
KGDV 041123Z 0412/0512 36011KT P6SM VCSH OVC080
     FM041800 04011KT P6SM BKN100
     FM050000 02009KT P6SM BKN070
     FM050600 01013KT P6SM VCSH OVC040
      AMD LTD TO CLD VIS AND WIND=



000
FTUS45 KGGW 041123
TAFOLF
TAF
KOLF 041123Z 0412/0512 01011KT P6SM BKN100
     FM041500 04014KT P6SM BKN080
     FM050500 03013KT P6SM -RA OVC040=



000
FTUS45 KGGW 041123
TAFGDV
TAF
KGDV 041123Z 0412/0512 36011KT P6SM VCSH OVC080
     FM041800 04011KT P6SM BKN100
     FM050000 02009KT P6SM BKN070
     FM050600 01013KT P6SM VCSH OVC040
      AMD LTD TO CLD VIS AND WIND=



000
FTUS45 KGGW 041123
TAFOLF
TAF
KOLF 041123Z 0412/0512 01011KT P6SM BKN100
     FM041500 04014KT P6SM BKN080
     FM050500 03013KT P6SM -RA OVC040=



000
FTUS45 KGGW 041123
TAFGDV
TAF
KGDV 041123Z 0412/0512 36011KT P6SM VCSH OVC080
     FM041800 04011KT P6SM BKN100
     FM050000 02009KT P6SM BKN070
     FM050600 01013KT P6SM VCSH OVC040
      AMD LTD TO CLD VIS AND WIND=



000
FTUS45 KGGW 040540 AAB
TAFGGW
TAF AMD
KGGW 040540Z 0406/0506 03018G24KT P6SM VCSH SCT080 BKN120
     FM041200 02013KT P6SM VCSH SCT060 BKN150
     FM041600 05013G19KT P6SM SCT050 BKN200=



000
FTUS45 KGGW 040540 AAB
TAFGDV
TAF AMD
KGDV 040540Z 0406/0506 36015G25KT P6SM VCTS SCT060CB BKN100
     FM040900 01013KT P6SM VCTS SCT080CB BKN120
     FM041500 03010KT P6SM SCT200
     FM050200 03015KT P6SM SCT120
      AMD LTD TO CLD VIS AND WIND=



000
FTUS45 KGGW 040540 AAB
TAFGDV
TAF AMD
KGDV 040540Z 0406/0506 36015G25KT P6SM VCTS SCT060CB BKN100
     FM040900 01013KT P6SM VCTS SCT080CB BKN120
     FM041500 03010KT P6SM SCT200
     FM050200 03015KT P6SM SCT120
      AMD LTD TO CLD VIS AND WIND=



000
FTUS45 KGGW 040540 AAA
TAFSDY
TAF AMD
KSDY 040540Z 0406/0506 35015G25KT P6SM VCTS SCT030 BKN060CB
     FM041100 01011KT P6SM VCSH SCT150 BKN250
     FM042100 03010KT P6SM FEW050 SCT100
      AMD LTD TO CLD VIS AND WIND=



000
FTUS45 KGGW 040540 AAB
TAFOLF
TAF AMD
KOLF 040540Z 0406/0506 02017G25KT P6SM VCTS SCT070CB BKN120
     FM040900 04014KT P6SM VCSH SCT090 BKN150
     FM041500 06013G19KT P6SM SCT040 BKN100
     FM050100 07009KT P6SM FEW050=



000
FTUS45 KGGW 040540 AAB
TAFOLF
TAF AMD
KOLF 040540Z 0406/0506 02017G25KT P6SM VCTS SCT070CB BKN120
     FM040900 04014KT P6SM VCSH SCT090 BKN150
     FM041500 06013G19KT P6SM SCT040 BKN100
     FM050100 07009KT P6SM FEW050=



000
FTUS45 KGGW 040324 AAA
TAFGDV
TAF AMD
KGDV 040324Z 0403/0424 02013G19KT P6SM VCTS SCT080CB BKN150
     FM040900 02010KT P6SM VCSH BKN070
     FM042100 02013KT P6SM VCTS BKN045CB
      AMD LTD TO CLD VIS AND WIND=



000
FTUS45 KGGW 040324 AAA
TAFGDV
TAF AMD
KGDV 040324Z 0403/0424 02013G19KT P6SM VCTS SCT080CB BKN150
     FM040900 02010KT P6SM VCSH BKN070
     FM042100 02013KT P6SM VCTS BKN045CB
      AMD LTD TO CLD VIS AND WIND=



000
FTUS45 KGGW 040322 AAA
TAFOLF
TAF AMD
KOLF 040322Z 0403/0424 03014G20KT P6SM VCTS SCT070CB BKN150
     FM040600 03010KT P6SM VCSH BKN080
     FM042100 05014KT P6SM VCTS BKN040CB=



000
FTUS45 KGGW 032320
TAFGDV
TAF
KGDV 032320Z 0400/0424 03010KT P6SM BKN150
     FM040900 02010KT P6SM VCSH BKN070
     FM042100 02013KT P6SM VCTS BKN045CB
      AMD LTD TO CLD VIS AND WIND=



000
FTUS45 KGGW 032320
TAFGGW
TAF
KGGW 032320Z 0400/0424 03015KT P6SM BKN150
     FM040600 02013KT P6SM VCSH BKN110
     FM042100 05014KT P6SM VCTS BKN045CB=



000
FTUS45 KGGW 032320
TAFOLF
TAF
KOLF 032320Z 0400/0424 03013KT P6SM BKN150
     FM040600 03010KT P6SM VCSH BKN080
     FM042100 05014KT P6SM VCTS BKN040CB=



000
FTUS45 KGGW 032320
TAFSDY
TAF
KSDY 032320Z 0400/0424 01010KT P6SM BKN150
     FM040900 02010KT P6SM VCSH BKN070
     FM042100 05013KT P6SM VCTS BKN040CB
      AMD LTD TO CLD VIS AND WIND=



000
FTUS45 KGGW 031720
TAFOLF
TAF
KOLF 031720Z 0318/0418 36012KT P6SM BKN150
     FM040000 03013KT P6SM BKN150=



000
FTUS45 KGGW 031720
TAFOLF
TAF
KOLF 031720Z 0318/0418 36012KT P6SM BKN150
     FM040000 03013KT P6SM BKN150=



000
FTUS45 KGGW 031720
TAFGDV
TAF
KGDV 031720Z 0318/0418 33011KT P6SM SCT150
     FM040000 02009KT P6SM BKN150
     FM040600 03013KT P6SM BKN150
      AMD LTD TO CLD VIS AND WIND=



000
FTUS45 KGGW 031720
TAFGGW
TAF
KGGW 031720Z 0318/0418 36013KT P6SM BKN140
     FM040000 03012KT P6SM BKN150=



000
FTUS45 KGGW 031720
TAFGDV
TAF
KGDV 031720Z 0318/0418 33011KT P6SM SCT150
     FM040000 02009KT P6SM BKN150
     FM040600 03013KT P6SM BKN150
      AMD LTD TO CLD VIS AND WIND=



000
FTUS45 KGGW 031720
TAFSDY
TAF
KSDY 031720Z 0318/0418 33012KT P6SM SCT150
     FM040000 01010KT P6SM BKN150
      AMD LTD TO CLD VIS AND WIND=



000
FTUS45 KGGW 031120
TAFOLF
TAF
KOLF 031120Z 0312/0412 01022KT P6SM SCT150
     FM031500 01014KT P6SM SCT140
     FM040000 03013KT P6SM BKN140=



000
FTUS45 KGGW 031120
TAFGGW
TAF
KGGW 031120Z 0312/0412 36013KT P6SM SCT150
     FM031800 36011KT P6SM BKN140
     FM040000 03014KT P6SM BKN130=



000
FTUS45 KGGW 031120
TAFSDY
TAF
KSDY 031120Z 0312/0412 36010KT P6SM SCT150
     FM040000 01014KT P6SM BKN150
      AMD LTD TO CLD VIS AND WIND=



000
FTUS45 KGGW 031120
TAFOLF
TAF
KOLF 031120Z 0312/0412 01022KT P6SM SCT150
     FM031500 01014KT P6SM SCT140
     FM040000 03013KT P6SM BKN140=



000
FTUS45 KGGW 031120
TAFGDV
TAF
KGDV 031120Z 0312/0412 32013KT P6SM SCT150
     FM032000 36014KT P6SM SCT150
     FM040000 02009KT P6SM BKN140
     FM040600 03013KT P6SM BKN110
      AMD LTD TO CLD VIS AND WIND=



000
FTUS45 KGGW 031120
TAFOLF
TAF
KOLF 031120Z 0312/0412 01022KT P6SM SCT150
     FM031500 01014KT P6SM SCT140
     FM040000 03013KT P6SM BKN140=



000
FTUS45 KGGW 031120
TAFOLF
TAF
KOLF 031120Z 0312/0412 01022KT P6SM SCT150
     FM031500 01014KT P6SM SCT140
     FM040000 03013KT P6SM BKN140=



000
FTUS45 KGGW 031120
TAFSDY
TAF
KSDY 031120Z 0312/0412 36010KT P6SM SCT150
     FM040000 01014KT P6SM BKN150
      AMD LTD TO CLD VIS AND WIND=



000
FTUS45 KGGW 031120
TAFGDV
TAF
KGDV 031120Z 0312/0412 32013KT P6SM SCT150
     FM032000 36014KT P6SM SCT150
     FM040000 02009KT P6SM BKN140
     FM040600 03013KT P6SM BKN110
      AMD LTD TO CLD VIS AND WIND=



000
FTUS45 KGGW 031120
TAFGDV
TAF
KGDV 031120Z 0312/0412 32013KT P6SM SCT150
     FM032000 36014KT P6SM SCT150
     FM040000 02009KT P6SM BKN140
     FM040600 03013KT P6SM BKN110
      AMD LTD TO CLD VIS AND WIND=



000
FTUS45 KGGW 031120
TAFGGW
TAF
KGGW 031120Z 0312/0412 36013KT P6SM SCT150
     FM031800 36011KT P6SM BKN140
     FM040000 03014KT P6SM BKN130=



000
FTUS45 KGGW 031120
TAFGDV
TAF
KGDV 031120Z 0312/0412 32013KT P6SM SCT150
     FM032000 36014KT P6SM SCT150
     FM040000 02009KT P6SM BKN140
     FM040600 03013KT P6SM BKN110
      AMD LTD TO CLD VIS AND WIND=



000
FTUS45 KGGW 022322
TAFOLF
TAF
KOLF 022322Z 0300/0324 VRB06KT P6SM BKN150
     FM030600 36010KT P6SM BKN140
     FM032000 02015G25KT P6SM BKN100=



000
FTUS45 KGGW 022322
TAFGGW
TAF
KGGW 022322Z 0300/0324 35011KT P6SM OVC150
     FM031900 01015G25KT P6SM OVC100=



000
FTUS45 KGGW 022322
TAFOLF
TAF
KOLF 022322Z 0300/0324 VRB06KT P6SM BKN150
     FM030600 36010KT P6SM BKN140
     FM032000 02015G25KT P6SM BKN100=



000
FTUS45 KGGW 022322
TAFGDV
TAF
KGDV 022322Z 0300/0324 19010KT P6SM BKN120
     FM030900 34010KT P6SM BKN120
      AMD LTD TO CLD VIS AND WIND=



000
FTUS45 KGGW 022322
TAFGDV
TAF
KGDV 022322Z 0300/0324 19010KT P6SM BKN120
     FM030900 34010KT P6SM BKN120
      AMD LTD TO CLD VIS AND WIND=



000
FTUS45 KGGW 022322
TAFSDY
TAF
KSDY 022322Z 0300/0324 VRB06KT P6SM SCT100 BKN120
     FM032100 35010G15KT P6SM OVC100
      AMD LTD TO CLD VIS AND WIND=



000
FTUS45 KGGW 022322
TAFGDV
TAF
KGDV 022322Z 0300/0324 19010KT P6SM BKN120
     FM030900 34010KT P6SM BKN120
      AMD LTD TO CLD VIS AND WIND=



000
FTUS45 KGGW 022322
TAFOLF
TAF
KOLF 022322Z 0300/0324 VRB06KT P6SM BKN150
     FM030600 36010KT P6SM BKN140
     FM032000 02015G25KT P6SM BKN100=



000
FTUS45 KGGW 022322
TAFSDY
TAF
KSDY 022322Z 0300/0324 VRB06KT P6SM SCT100 BKN120
     FM032100 35010G15KT P6SM OVC100
      AMD LTD TO CLD VIS AND WIND=



000
FTUS45 KGGW 022322
TAFOLF
TAF
KOLF 022322Z 0300/0324 VRB06KT P6SM BKN150
     FM030600 36010KT P6SM BKN140
     FM032000 02015G25KT P6SM BKN100=



000
FTUS45 KGGW 022322
TAFGDV
TAF
KGDV 022322Z 0300/0324 19010KT P6SM BKN120
     FM030900 34010KT P6SM BKN120
      AMD LTD TO CLD VIS AND WIND=



000
FTUS45 KGGW 022322
TAFGGW
TAF
KGGW 022322Z 0300/0324 35011KT P6SM OVC150
     FM031900 01015G25KT P6SM OVC100=



000
FTUS45 KGGW 022119 AAA
TAFGDV
TAF AMD
KGDV 022119Z 0221/0318 19010KT P6SM FEW200
      TEMPO 0221/0223 VRB25G50KT -TSRA OVC100CB
     FM030900 34010KT P6SM BKN150
      AMD LTD TO CLD VIS AND WIND=



000
FTUS45 KGGW 022119 AAA
TAFGDV
TAF AMD
KGDV 022119Z 0221/0318 19010KT P6SM FEW200
      TEMPO 0221/0223 VRB25G50KT -TSRA OVC100CB
     FM030900 34010KT P6SM BKN150
      AMD LTD TO CLD VIS AND WIND=



000
FTUS45 KGGW 021728
TAFGGW
TAF
KGGW 021728Z 0218/0318 15011KT P6SM BKN200
     FM022100 20009KT P6SM BKN170
     FM030000 35011KT P6SM BKN150=



000
FTUS45 KGGW 021728
TAFOLF
TAF
KOLF 021728Z 0218/0318 13007KT P6SM SCT200
     FM022100 21008KT P6SM SCT170
     FM030300 36010KT P6SM BKN150=



000
FTUS45 KGGW 021728
TAFSDY
TAF
KSDY 021728Z 0218/0318 18011KT P6SM FEW200
     FM030000 VRB06KT P6SM SCT150
      AMD LTD TO CLD VIS AND WIND=



000
FTUS45 KGGW 021728
TAFGDV
TAF
KGDV 021728Z 0218/0318 19010KT P6SM FEW200
     FM030900 34010KT P6SM BKN150
      AMD LTD TO CLD VIS AND WIND=



000
FTUS45 KGGW 021728
TAFGDV
TAF
KGDV 021728Z 0218/0318 19010KT P6SM FEW200
     FM030900 34010KT P6SM BKN150
      AMD LTD TO CLD VIS AND WIND=



000
FTUS45 KGGW 021728
TAFOLF
TAF
KOLF 021728Z 0218/0318 13007KT P6SM SCT200
     FM022100 21008KT P6SM SCT170
     FM030300 36010KT P6SM BKN150=



000
FTUS45 KGGW 021728
TAFGDV
TAF
KGDV 021728Z 0218/0318 19010KT P6SM FEW200
     FM030900 34010KT P6SM BKN150
      AMD LTD TO CLD VIS AND WIND=



000
FTUS45 KGGW 021728
TAFOLF
TAF
KOLF 021728Z 0218/0318 13007KT P6SM SCT200
     FM022100 21008KT P6SM SCT170
     FM030300 36010KT P6SM BKN150=



000
FTUS45 KGGW 021728
TAFSDY
TAF
KSDY 021728Z 0218/0318 18011KT P6SM FEW200
     FM030000 VRB06KT P6SM SCT150
      AMD LTD TO CLD VIS AND WIND=



000
FTUS45 KGGW 021728
TAFGGW
TAF
KGGW 021728Z 0218/0318 15011KT P6SM BKN200
     FM022100 20009KT P6SM BKN170
     FM030000 35011KT P6SM BKN150=



000
FTUS45 KGGW 021728
TAFOLF
TAF
KOLF 021728Z 0218/0318 13007KT P6SM SCT200
     FM022100 21008KT P6SM SCT170
     FM030300 36010KT P6SM BKN150=



000
FTUS45 KGGW 021728
TAFGDV
TAF
KGDV 021728Z 0218/0318 19010KT P6SM FEW200
     FM030900 34010KT P6SM BKN150
      AMD LTD TO CLD VIS AND WIND=



000
FTUS45 KGGW 021122
TAFOLF
TAF
KOLF 021122Z 0212/0312 07007KT P6SM FEW200
     FM021500 13007KT P6SM FEW150
     FM022100 23008KT P6SM FEW200
     FM030300 36010KT P6SM FEW150=



000
FTUS45 KGGW 021122
TAFGGW
TAF
KGGW 021122Z 0212/0312 10010KT P6SM SCT200
     FM021500 14011KT P6SM FEW150
     FM021800 22009KT P6SM FEW150
     FM030000 33006KT P6SM SCT150
     FM030300 36013KT P6SM SCT150=



000
FTUS45 KGGW 021122
TAFOLF
TAF
KOLF 021122Z 0212/0312 07007KT P6SM FEW200
     FM021500 13007KT P6SM FEW150
     FM022100 23008KT P6SM FEW200
     FM030300 36010KT P6SM FEW150=



000
FTUS45 KGGW 021122
TAFGDV
TAF
KGDV 021122Z 0212/0312 07007KT P6SM FEW200
     FM021500 15007KT P6SM FEW140
     FM030600 VRB05KT P6SM FEW140
      AMD LTD TO CLD VIS AND WIND=



000
FTUS45 KGGW 021122
TAFGDV
TAF
KGDV 021122Z 0212/0312 07007KT P6SM FEW200
     FM021500 15007KT P6SM FEW140
     FM030600 VRB05KT P6SM FEW140
      AMD LTD TO CLD VIS AND WIND=



000
FTUS45 KGGW 021122
TAFSDY
TAF
KSDY 021122Z 0212/0312 VRB04KT P6SM FEW200
     FM021500 16007KT P6SM FEW200
     FM021800 17011KT P6SM FEW140
     FM030000 20007KT P6SM FEW150
     FM030300 VRB03KT P6SM FEW150
      AMD LTD TO CLD VIS AND WIND=



000
FTUS45 KGGW 021122
TAFOLF
TAF
KOLF 021122Z 0212/0312 07007KT P6SM FEW200
     FM021500 13007KT P6SM FEW150
     FM022100 23008KT P6SM FEW200
     FM030300 36010KT P6SM FEW150=



000
FTUS45 KGGW 021122
TAFSDY
TAF
KSDY 021122Z 0212/0312 VRB04KT P6SM FEW200
     FM021500 16007KT P6SM FEW200
     FM021800 17011KT P6SM FEW140
     FM030000 20007KT P6SM FEW150
     FM030300 VRB03KT P6SM FEW150
      AMD LTD TO CLD VIS AND WIND=



000
FTUS45 KGGW 021122
TAFGDV
TAF
KGDV 021122Z 0212/0312 07007KT P6SM FEW200
     FM021500 15007KT P6SM FEW140
     FM030600 VRB05KT P6SM FEW140
      AMD LTD TO CLD VIS AND WIND=



000
FTUS45 KGGW 021122
TAFGGW
TAF
KGGW 021122Z 0212/0312 10010KT P6SM SCT200
     FM021500 14011KT P6SM FEW150
     FM021800 22009KT P6SM FEW150
     FM030000 33006KT P6SM SCT150
     FM030300 36013KT P6SM SCT150=



000
FTUS45 KGGW 021122
TAFOLF
TAF
KOLF 021122Z 0212/0312 07007KT P6SM FEW200
     FM021500 13007KT P6SM FEW150
     FM022100 23008KT P6SM FEW200
     FM030300 36010KT P6SM FEW150=



000
FTUS45 KGGW 021122
TAFGDV
TAF
KGDV 021122Z 0212/0312 07007KT P6SM FEW200
     FM021500 15007KT P6SM FEW140
     FM030600 VRB05KT P6SM FEW140
      AMD LTD TO CLD VIS AND WIND=



    US Dept of Commerce
    National Oceanic and Atmospheric Administration
    National Weather Service
    1325 East West Highway
    Silver Spring, MD 20910
    Page Author: NWS Internet Services Team
Disclaimer
Information Quality
Credits
Glossary
Privacy Policy
Freedom of Information Act (FOIA)
About Us
Career Opportunities